Time;durP1;ratioP1;P1;durP2;ratioP2;P2;SDS_P1;SDS_P2;PMS_P1;PMS_P2;Temp;Humidity;BMP_temperature;BMP_pressure;BME280_temperature;BME280_humidity;BME280_pressure;Samples;Min_cycle;Max_cycle;Signal;HPM_P1;HPM_P2
2022/03/11 00:00:16;;;;;;;;;;;;;;;12.90;100.00;98305.13;5114956;28;19927;-79
2022/03/11 00:02:43;;;;;;;;;;;;;;;13.02;100.00;98307.09;5114717;28;19923;-80
2022/03/11 00:05:11;;;;;;;;;;;;;;;13.28;100.00;98305.72;5096662;28;19930;-80
2022/03/11 00:07:40;;;;;;;;;;;;;;;13.17;100.00;98291.31;5115008;28;19924;-80
2022/03/11 00:10:08;;;;;;;;;;;;;;;13.31;100.00;98307.59;5097006;28;19928;-80
2022/03/11 00:12:36;;;;;;;;;;;;;;;13.19;100.00;98300.06;5079814;28;19928;-80
2022/03/11 00:15:07;;;;;;;;;;;;;;;13.23;100.00;98298.66;5096572;28;19924;-80
2022/03/11 00:17:34;;;;;;;;;;;;;;;13.30;100.00;98297.63;5096515;28;20019;-80
2022/03/11 00:20:02;;;;;;;;;;;;;;;13.53;100.00;98297.09;5096947;28;19923;-80
2022/03/11 00:22:29;;;;;;;;;;;;;;;13.09;100.00;98290.00;5096596;28;19934;-80
2022/03/11 00:24:56;;;;;;;;;;;;;;;13.23;100.00;98303.50;5079671;28;19924;-80
2022/03/11 00:28:37;;;;;;;;;;;;;;;12.81;100.00;98289.03;5078075;27;2134332;-80
2022/03/11 00:31:07;;;;;;;;;;;;;;;13.34;100.00;98275.81;5152716;27;20453;-81
2022/03/11 00:33:35;;;;;;;;;;;;;;;13.40;100.00;98271.16;5134844;27;19923;-81
2022/03/11 00:36:02;;;;;;;;;;;;;;;13.64;100.00;98261.75;5134711;27;19931;-81
2022/03/11 00:38:29;;;;;;;;;;;;;;;13.29;100.00;98259.56;5152854;27;19930;-81
2022/03/11 00:40:58;;;;;;;;;;;;;;;13.39;100.00;98252.78;5117703;27;19928;-80
2022/03/11 00:43:28;;;;;;;;;;;;;;;13.26;100.00;98252.88;5134732;27;20350;-81
2022/03/11 00:45:57;;;;;;;;;;;;;;;13.22;100.00;98241.00;5152702;27;19923;-81
2022/03/11 00:48:24;;;;;;;;;;;;;;;13.42;100.00;98244.19;5152782;27;19949;-81
2022/03/11 00:50:51;;;;;;;;;;;;;;;12.72;100.00;98244.91;5152736;27;19927;-81
2022/03/11 00:53:18;;;;;;;;;;;;;;;13.20;100.00;98239.91;5152559;27;19966;-81
2022/03/11 00:55:45;;;;;;;;;;;;;;;12.78;100.00;98247.91;5134383;27;19923;-81
2022/03/11 00:58:12;;;;;;;;;;;;;;;12.60;100.00;98248.56;5134438;27;20021;-81
2022/03/11 01:00:40;;;;;;;;;;;;;;;12.71;100.00;98234.94;5152385;27;19923;-81
2022/03/11 01:03:07;;;;;;;;;;;;;;;12.74;100.00;98234.03;5134155;27;19966;-81
2022/03/11 01:05:34;;;;;;;;;;;;;;;12.95;100.00;98240.06;5133856;27;20308;-81
2022/03/11 01:08:03;;;;;;;;;;;;;;;12.77;100.00;98230.28;5115348;27;19931;-81
2022/03/11 01:10:30;;;;;;;;;;;;;;;12.87;100.00;98227.53;5134152;27;19930;-81
2022/03/11 01:12:57;;;;;;;;;;;;;;;13.08;100.00;98216.31;5133913;27;19943;-81
2022/03/11 01:15:24;;;;;;;;;;;;;;;13.06;100.00;98201.97;5133747;27;19951;-81
2022/03/11 01:17:51;;;;;;;;;;;;;;;13.00;100.00;98203.03;5153500;27;19924;-81
2022/03/11 01:20:18;;;;;;;;;;;;;;;12.74;100.00;98202.41;5152255;27;19928;-81
2022/03/11 01:22:46;;;;;;;;;;;;;;;12.93;100.00;98194.88;5152541;27;19927;-81
2022/03/11 01:25:15;;;;;;;;;;;;;;;13.03;100.00;98197.28;5152328;27;19931;-81
2022/03/11 01:27:42;;;;;;;;;;;;;;;12.90;100.00;98182.56;5151703;27;19924;-81
2022/03/11 01:30:13;;;;;;;;;;;;;;;12.79;100.00;98207.41;5133538;27;19927;-82
2022/03/11 01:32:41;;;;;;;;;;;;;;;13.05;100.00;98205.25;5133694;27;20311;-81
2022/03/11 01:35:09;;;;;;;;;;;;;;;13.14;100.00;98185.66;5133545;27;19927;-81
2022/03/11 01:37:39;;;;;;;;;;;;;;;12.84;100.00;98195.63;5151933;27;19924;-81
2022/03/11 01:40:07;;;;;;;;;;;;;;;13.17;100.00;98185.50;5119256;27;19931;-81
2022/03/11 01:42:36;;;;;;;;;;;;;;;12.99;100.00;98190.22;5119624;27;19968;-81
2022/03/11 01:45:04;;;;;;;;;;;;;;;12.93;100.00;98178.84;5102822;27;20398;-81
2022/03/11 01:47:31;;;;;;;;;;;;;;;12.22;100.00;98166.72;5119659;27;19923;-81
2022/03/11 01:50:01;;;;;;;;;;;;;;;13.04;100.00;98165.19;5119615;27;20349;-81
2022/03/11 01:52:28;;;;;;;;;;;;;;;13.26;100.00;98170.72;5102814;27;19932;-82
2022/03/11 01:54:55;;;;;;;;;;;;;;;12.85;100.00;98169.13;5119267;27;19972;-81
2022/03/11 01:57:23;;;;;;;;;;;;;;;12.92;100.00;98173.69;5137631;27;19930;-81
2022/03/11 01:59:53;;;;;;;;;;;;;;;12.11;100.00;98166.34;5119329;27;19924;-81
2022/03/11 02:02:21;;;;;;;;;;;;;;;13.13;100.00;98156.03;5119332;27;20296;-81
2022/03/11 02:04:48;;;;;;;;;;;;;;;13.16;100.00;98172.72;5119200;27;19946;-79
2022/03/11 02:07:15;;;;;;;;;;;;;;;13.03;100.00;98160.03;5119159;27;20017;-79
2022/03/11 02:09:42;;;;;;;;;;;;;;;13.23;100.00;98160.44;5119001;27;20005;-79
2022/03/11 02:12:09;;;;;;;;;;;;;;;12.89;100.00;98155.00;5118759;27;20382;-78
2022/03/11 02:14:36;;;;;;;;;;;;;;;12.27;100.00;98146.53;5137495;27;20270;-81
2022/03/11 02:17:04;;;;;;;;;;;;;;;13.09;100.00;98141.38;5119262;27;19957;-81
2022/03/11 02:19:31;;;;;;;;;;;;;;;13.10;100.00;98135.28;5101819;27;20014;-81
2022/03/11 02:21:59;;;;;;;;;;;;;;;13.19;100.00;98121.31;5085283;27;19989;-81
2022/03/11 02:24:27;;;;;;;;;;;;;;;12.93;100.00;98144.41;5118880;27;19927;-81
2022/03/11 02:26:55;;;;;;;;;;;;;;;13.05;100.00;98109.91;5136547;27;19924;-81
2022/03/11 02:29:22;;;;;;;;;;;;;;;12.59;100.00;98120.91;5137234;27;20022;-81
2022/03/11 02:31:50;;;;;;;;;;;;;;;12.63;100.00;98127.13;5119038;27;19927;-81
2022/03/11 02:34:17;;;;;;;;;;;;;;;12.41;100.00;98114.41;5101730;27;19973;-81
2022/03/11 02:36:44;;;;;;;;;;;;;;;12.47;100.00;98115.38;5137098;27;19968;-81
2022/03/11 02:39:12;;;;;;;;;;;;;;;12.77;100.00;98123.00;5118581;27;20002;-81
2022/03/11 02:41:42;;;;;;;;;;;;;;;12.14;100.00;98112.22;5118338;27;19980;-81
2022/03/11 02:44:10;;;;;;;;;;;;;;;12.35;100.00;98114.22;5137026;27;19930;-81
2022/03/11 02:46:38;;;;;;;;;;;;;;;12.81;100.00;98100.44;5118766;27;20501;-81
2022/03/11 02:49:06;;;;;;;;;;;;;;;12.67;100.00;98094.16;5118157;27;19923;-81
2022/03/11 02:51:33;;;;;;;;;;;;;;;12.64;100.00;98097.88;5135657;27;19924;-81
2022/03/11 02:54:00;;;;;;;;;;;;;;;12.43;100.00;98087.50;5136452;27;19963;-81
2022/03/11 02:56:27;;;;;;;;;;;;;;;12.49;100.00;98076.47;5118284;27;19923;-81
2022/03/11 02:58:54;;;;;;;;;;;;;;;12.48;100.00;98072.13;5136369;27;19923;-81
2022/03/11 03:01:22;;;;;;;;;;;;;;;12.80;100.00;98073.66;5118232;27;19968;-81
2022/03/11 03:03:49;;;;;;;;;;;;;;;12.15;100.00;98065.38;5136731;27;20018;-81
2022/03/11 03:06:16;;;;;;;;;;;;;;;12.15;100.00;98071.78;5136283;27;20048;-82
2022/03/11 03:08:43;;;;;;;;;;;;;;;12.16;100.00;98066.97;5117922;27;19968;-81
2022/03/11 03:11:10;;;;;;;;;;;;;;;12.10;100.00;98057.59;5118049;27;19929;-81
2022/03/11 03:13:38;;;;;;;;;;;;;;;12.20;100.00;98051.59;5118121;27;19927;-81
2022/03/11 03:16:05;;;;;;;;;;;;;;;12.11;100.00;98059.94;5100897;27;19924;-81
2022/03/11 03:18:32;;;;;;;;;;;;;;;11.97;100.00;98037.28;5117737;27;19930;-80
2022/03/11 03:20:59;;;;;;;;;;;;;;;12.20;100.00;98051.59;5136029;27;19923;-81
2022/03/11 03:23:26;;;;;;;;;;;;;;;12.15;100.00;98038.19;5135913;27;19923;-81
2022/03/11 03:25:55;;;;;;;;;;;;;;;12.06;100.00;98034.53;5100666;27;19930;-81
2022/03/11 03:28:25;;;;;;;;;;;;;;;12.11;100.00;98037.53;5117089;27;19976;-81
2022/03/11 03:30:52;;;;;;;;;;;;;;;12.30;100.00;98030.00;5117629;27;19930;-81
2022/03/11 03:33:21;;;;;;;;;;;;;;;12.53;100.00;98033.06;5117552;27;19930;-81
2022/03/11 03:35:48;;;;;;;;;;;;;;;12.10;100.00;98013.56;5135641;27;19930;-81
2022/03/11 03:38:18;;;;;;;;;;;;;;;12.34;100.00;98006.22;5115235;27;20283;-81
2022/03/11 03:40:46;;;;;;;;;;;;;;;12.30;100.00;98016.00;5082083;27;19930;-81
2022/03/11 03:43:13;;;;;;;;;;;;;;;12.32;100.00;98008.72;5135542;27;19923;-81
2022/03/11 03:45:40;;;;;;;;;;;;;;;11.77;100.00;98009.63;5135534;27;19931;-81
2022/03/11 03:48:07;;;;;;;;;;;;;;;11.66;100.00;98006.44;5099824;27;19927;-81
2022/03/11 03:50:35;;;;;;;;;;;;;;;11.56;100.00;98002.00;5134638;27;19923;-81
2022/03/11 03:53:02;;;;;;;;;;;;;;;11.77;100.00;97995.66;5082328;27;20027;-81
2022/03/11 03:55:29;;;;;;;;;;;;;;;12.11;100.00;97991.97;5135041;27;19924;-81
2022/03/11 03:57:56;;;;;;;;;;;;;;;11.52;100.00;98004.16;5134747;27;19927;-81
2022/03/11 04:00:23;;;;;;;;;;;;;;;11.75;100.00;97998.16;5115802;27;19924;-81
2022/03/11 04:02:54;;;;;;;;;;;;;;;11.97;100.00;97990.50;5102851;28;19924;-81
2022/03/11 04:05:21;;;;;;;;;;;;;;;12.22;100.00;97981.88;5114579;28;19973;-81
2022/03/11 04:07:49;;;;;;;;;;;;;;;11.94;100.00;97983.00;5114514;28;19934;-81
2022/03/11 04:10:20;;;;;;;;;;;;;;;12.23;100.00;97965.88;5114959;28;19924;-81
2022/03/11 04:12:47;;;;;;;;;;;;;;;11.66;100.00;97972.88;5080015;28;19927;-81
2022/03/11 04:15:15;;;;;;;;;;;;;;;11.90;100.00;97959.19;5096530;28;20010;-81
2022/03/11 04:17:42;;;;;;;;;;;;;;;12.17;100.00;97971.31;5116853;28;19924;-81
2022/03/11 04:20:10;;;;;;;;;;;;;;;11.60;100.00;97966.28;5134912;27;19935;-81
2022/03/11 04:22:44;;;;;;;;;;;;;;;11.87;100.00;97960.91;5116473;27;19966;-81
2022/03/11 04:25:13;;;;;;;;;;;;;;;11.46;100.00;97978.00;5135110;28;19923;-81
2022/03/11 04:27:40;;;;;;;;;;;;;;;11.89;100.00;97957.63;5116513;28;20342;-81
2022/03/11 04:30:08;;;;;;;;;;;;;;;12.10;100.00;97940.78;5116742;28;20011;-81
2022/03/11 04:32:35;;;;;;;;;;;;;;;12.04;100.00;97942.59;5135014;28;19924;-81
2022/03/11 04:35:03;;;;;;;;;;;;;;;12.10;100.00;97937.97;5134724;28;20006;-81
2022/03/11 04:37:30;;;;;;;;;;;;;;;11.51;100.00;97943.84;5134743;28;19927;-81
2022/03/11 04:39:57;;;;;;;;;;;;;;;12.09;100.00;97939.22;5116444;28;19935;-81
2022/03/11 04:42:25;;;;;;;;;;;;;;;12.20;100.00;97924.78;5134856;28;19924;-81
2022/03/11 04:44:52;;;;;;;;;;;;;;;11.94;100.00;97918.63;5129401;28;19923;-81
2022/03/11 04:47:19;;;;;;;;;;;;;;;11.63;100.00;97906.63;5134871;28;20004;-81
2022/03/11 04:49:47;;;;;;;;;;;;;;;11.52;100.00;97928.63;5116368;28;19923;-81
2022/03/11 04:52:15;;;;;;;;;;;;;;;11.75;100.00;97907.81;5099611;28;19930;-81
2022/03/11 04:54:42;;;;;;;;;;;;;;;11.63;100.00;97906.63;5116514;28;20030;-81
2022/03/11 04:57:09;;;;;;;;;;;;;;;11.60;100.00;97896.34;5134752;28;19973;-81
2022/03/11 04:59:36;;;;;;;;;;;;;;;11.61;100.00;97897.13;5099490;28;19924;-80
2022/03/11 05:02:04;;;;;;;;;;;;;;;11.34;100.00;97889.38;5116530;28;20279;-81
2022/03/11 05:04:31;;;;;;;;;;;;;;;11.42;100.00;97893.44;5134427;28;19924;-81
2022/03/11 05:06:59;;;;;;;;;;;;;;;11.63;100.00;97864.69;5134194;28;20019;-81
2022/03/11 05:09:26;;;;;;;;;;;;;;;11.78;100.00;97862.13;5116110;28;19931;-81
2022/03/11 05:11:53;;;;;;;;;;;;;;;11.50;100.00;97875.16;5134506;28;19923;-81
2022/03/11 05:14:20;;;;;;;;;;;;;;;11.48;100.00;97854.50;5118587;27;19927;-81
2022/03/11 05:16:48;;;;;;;;;;;;;;;11.84;100.00;97861.06;5103454;27;19957;-81
2022/03/11 05:19:15;;;;;;;;;;;;;;;11.32;100.00;97866.66;5102966;27;19924;-81
2022/03/11 05:21:42;;;;;;;;;;;;;;;11.37;100.00;97876.47;5102947;27;19923;-81
2022/03/11 05:24:10;;;;;;;;;;;;;;;11.49;100.00;97844.84;5138264;27;19927;-80
2022/03/11 05:26:37;;;;;;;;;;;;;;;11.55;100.00;97843.81;5102896;27;19923;-81
2022/03/11 05:29:04;;;;;;;;;;;;;;;11.05;100.00;97877.66;5137934;27;19924;-81
2022/03/11 05:31:32;;;;;;;;;;;;;;;11.56;100.00;97856.53;5138081;27;19931;-81
2022/03/11 05:33:59;;;;;;;;;;;;;;;11.49;100.00;97851.22;5137811;27;19923;-80
2022/03/11 05:36:26;;;;;;;;;;;;;;;11.10;100.00;97840.75;5137838;27;19938;-80
2022/03/11 05:38:53;;;;;;;;;;;;;;;11.59;100.00;97838.06;5107739;28;20014;-81
2022/03/11 05:41:20;;;;;;;;;;;;;;;11.17;100.00;97842.47;5115393;27;19984;-81
2022/03/11 05:43:48;;;;;;;;;;;;;;;11.50;100.00;97854.78;5102467;27;19927;-81
2022/03/11 05:46:15;;;;;;;;;;;;;;;11.30;100.00;97855.16;5137765;27;20365;-81
2022/03/11 05:48:43;;;;;;;;;;;;;;;11.16;100.00;97855.69;5137529;27;19924;-81
2022/03/11 05:51:10;;;;;;;;;;;;;;;11.53;100.00;97843.47;5137809;27;20331;-81
2022/03/11 05:53:38;;;;;;;;;;;;;;;11.69;100.00;97848.84;5128296;27;20305;-81
2022/03/11 05:56:05;;;;;;;;;;;;;;;11.27;100.00;97860.91;5081868;28;20305;-81
2022/03/11 05:58:32;;;;;;;;;;;;;;;11.76;100.00;97859.00;5099098;28;20346;-80
2022/03/11 06:00:59;;;;;;;;;;;;;;;11.76;100.00;97850.59;5098735;28;20398;-80
2022/03/11 06:03:27;;;;;;;;;;;;;;;11.51;100.00;97837.56;5098318;28;20271;-81
2022/03/11 06:05:54;;;;;;;;;;;;;;;11.37;100.00;97838.13;5082163;28;19923;-81
2022/03/11 06:08:23;;;;;;;;;;;;;;;11.86;100.00;97841.78;5098567;28;19959;-80
2022/03/11 06:10:50;;;;;;;;;;;;;;;11.80;100.00;97832.44;5117010;28;20017;-81
2022/03/11 06:13:18;;;;;;;;;;;;;;;11.23;100.00;97833.06;5098624;28;19931;-81
2022/03/11 06:15:45;;;;;;;;;;;;;;;11.34;100.00;97829.84;5098379;28;19963;-81
2022/03/11 06:18:15;;;;;;;;;;;;;;;11.41;100.00;97810.00;5115115;28;19928;-80
2022/03/11 06:20:42;;;;;;;;;;;;;;;10.86;100.00;97832.03;5116495;28;19930;-80
2022/03/11 06:23:09;;;;;;;;;;;;;;;11.09;100.00;97839.19;5116541;28;19924;-81
2022/03/11 06:25:39;;;;;;;;;;;;;;;10.81;100.00;97823.47;5098207;28;19938;-83
2022/03/11 06:28:08;;;;;;;;;;;;;;;10.98;100.00;97827.59;5077903;28;20026;-83
2022/03/11 06:30:36;;;;;;;;;;;;;;;10.68;100.00;97831.09;5078004;28;19931;-83
2022/03/11 06:33:03;;;;;;;;;;;;;;;10.77;100.00;97806.03;5077926;28;19931;-83
2022/03/11 06:35:35;;;;;;;;;;;;;;;10.98;100.00;97820.00;5077727;28;19960;-83
2022/03/11 06:38:04;;;;;;;;;;;;;;;11.30;100.00;97816.00;5061564;28;19934;-84
2022/03/11 06:40:35;;;;;;;;;;;;;;;10.72;100.00;97826.19;5095843;28;19947;-83
2022/03/11 06:43:05;;;;;;;;;;;;;;;10.68;100.00;97825.53;5077994;28;19931;-84
2022/03/11 06:45:34;;;;;;;;;;;;;;;11.15;100.00;97820.56;5077814;28;19924;-83
2022/03/11 06:48:05;;;;;;;;;;;;;;;11.28;100.00;97815.69;5061339;28;20018;-84
2022/03/11 06:50:32;;;;;;;;;;;;;;;11.82;100.00;97812.38;5094294;28;19924;-84
2022/03/11 06:53:00;;;;;;;;;;;;;;;11.31;100.00;97809.19;5061208;28;19924;-83
2022/03/11 06:55:30;;;;;;;;;;;;;;;11.20;100.00;97789.25;5077728;28;19930;-83
2022/03/11 06:58:28;;;;;;;;;;;;;;;10.86;100.00;97742.63;5111700;27;19920;-84
2022/03/11 07:00:55;;;;;;;;;;;;;;;10.74;100.00;97773.41;5077017;28;20332;-83
2022/03/11 07:03:23;;;;;;;;;;;;;;;10.51;100.00;97765.53;5093195;28;19928;-83
2022/03/11 07:05:50;;;;;;;;;;;;;;;10.71;100.00;97758.38;5093596;28;20015;-83
2022/03/11 07:08:18;;;;;;;;;;;;;;;10.38;100.00;97767.56;5093093;28;19924;-83
2022/03/11 07:10:45;;;;;;;;;;;;;;;10.69;100.00;97748.88;5093888;28;19932;-83
2022/03/11 07:13:14;;;;;;;;;;;;;;;10.72;100.00;97762.69;5110303;28;19924;-83
2022/03/11 07:15:42;;;;;;;;;;;;;;;10.54;100.00;97759.03;5093304;28;19931;-83
2022/03/11 07:18:12;;;;;;;;;;;;;;;10.70;100.00;97756.81;5094449;28;19927;-83
2022/03/11 07:20:40;;;;;;;;;;;;;;;10.92;100.00;97751.19;5093408;28;20319;-84
2022/03/11 07:23:23;;;;;;;;;;;;;;;11.06;100.00;97733.88;5093644;28;19924;-83
2022/03/11 07:25:51;;;;;;;;;;;;;;;10.80;100.00;97738.06;5093522;28;20363;-83
2022/03/11 07:28:20;;;;;;;;;;;;;;;11.20;100.00;97750.09;5109814;28;19964;-83
2022/03/11 07:30:48;;;;;;;;;;;;;;;11.70;100.00;97726.53;5109992;28;20324;-83
2022/03/11 07:33:15;;;;;;;;;;;;;;;11.36;100.00;97727.47;5093181;28;19929;-83
2022/03/11 07:35:43;;;;;;;;;;;;;;;11.81;100.00;97727.66;5092190;28;19924;-83
2022/03/11 07:38:10;;;;;;;;;;;;;;;11.91;100.00;97704.03;5104708;28;20371;-81
2022/03/11 07:40:37;;;;;;;;;;;;;;;11.53;100.00;97714.81;5080109;28;19924;-85
2022/03/11 07:43:07;;;;;;;;;;;;;;;11.00;100.00;97724.53;5110982;28;20525;-84
2022/03/11 07:45:34;;;;;;;;;;;;;;;11.24;100.00;97706.00;5092939;28;19963;-83
2022/03/11 07:48:02;;;;;;;;;;;;;;;10.82;100.00;97744.00;5110201;28;20416;-84
2022/03/11 07:50:29;;;;;;;;;;;;;;;11.56;100.00;97744.66;5109941;28;19924;-84
2022/03/11 07:52:57;;;;;;;;;;;;;;;11.92;100.00;97753.16;5111040;28;19924;-84
2022/03/11 07:55:25;;;;;;;;;;;;;;;11.52;100.00;97710.47;5093698;28;20285;-83
2022/03/11 07:58:12;;;;;;;;;;;;;;;11.64;100.00;97717.97;5111798;28;19932;-84
2022/03/11 08:00:41;;;;;;;;;;;;;;;12.06;100.00;97695.78;5109336;28;20010;-85
2022/03/11 08:03:08;;;;;;;;;;;;;;;11.77;100.00;97676.66;5075978;28;19924;-82
2022/03/11 08:05:36;;;;;;;;;;;;;;;11.58;100.00;97708.63;5093419;28;19924;-85
2022/03/11 08:08:07;;;;;;;;;;;;;;;11.83;100.00;97702.78;5088432;28;19931;-85
2022/03/11 08:10:37;;;;;;;;;;;;;;;11.98;100.00;97702.97;5059946;28;19928;-82
2022/03/11 08:13:09;;;;;;;;;;;;;;;11.63;100.00;97696.06;5090820;28;19931;-81
2022/03/11 08:15:39;;;;;;;;;;;;;;;11.42;100.00;97664.13;5074865;28;19928;-81
2022/03/11 08:18:06;;;;;;;;;;;;;;;11.10;100.00;97687.03;5093589;28;20551;-81
2022/03/11 08:20:33;;;;;;;;;;;;;;;12.17;100.00;97680.09;5091556;28;20003;-80
2022/03/11 08:23:01;;;;;;;;;;;;;;;12.65;100.00;97655.91;5090266;28;19923;-83
2022/03/11 08:25:28;;;;;;;;;;;;;;;12.07;100.00;97656.13;5076625;28;19970;-83
2022/03/11 08:27:56;;;;;;;;;;;;;;;11.86;100.00;97671.06;5058941;28;19935;-80
2022/03/11 08:30:25;;;;;;;;;;;;;;;11.73;100.00;97678.03;5086784;28;19974;-83
2022/03/11 08:32:56;;;;;;;;;;;;;;;12.08;100.00;97663.31;5078392;28;20284;-83
2022/03/11 08:35:27;;;;;;;;;;;;;;;12.03;100.00;97618.34;5094401;28;20015;-82
2022/03/11 08:37:55;;;;;;;;;;;;;;;11.41;100.00;97654.19;5093508;28;19931;-81
2022/03/11 08:40:23;;;;;;;;;;;;;;;11.87;100.00;97653.03;5096175;28;19973;-83
2022/03/11 08:46:07;;;;;;;;;;;;;;;12.24;100.00;97654.59;5037232;28;19948;-86
2022/03/11 08:48:35;;;;;;;;;;;;;;;13.23;100.00;97656.38;5094939;28;19924;-83
2022/03/11 08:51:03;;;;;;;;;;;;;;;13.38;100.00;97642.41;5061147;28;19970;-83
2022/03/11 08:53:30;;;;;;;;;;;;;;;13.27;100.00;97647.78;5078553;28;19938;-83
2022/03/11 08:55:57;;;;;;;;;;;;;;;13.32;100.00;97635.91;5078021;28;19928;-84
2022/03/11 08:58:24;;;;;;;;;;;;;;;13.73;100.00;97649.06;5071955;28;19935;-83
2022/03/11 09:00:51;;;;;;;;;;;;;;;13.43;100.00;97652.97;5086865;28;20395;-83
2022/03/11 09:03:19;;;;;;;;;;;;;;;13.19;100.00;97632.53;5072065;28;19925;-82
2022/03/11 09:05:46;;;;;;;;;;;;;;;13.55;100.00;97644.34;5089039;28;20380;-83
2022/03/11 09:08:14;;;;;;;;;;;;;;;13.49;100.00;97642.66;5088336;28;19966;-82
2022/03/11 09:10:41;;;;;;;;;;;;;;;13.22;100.00;97640.78;5092778;28;20372;-83
2022/03/11 09:13:08;;;;;;;;;;;;;;;12.94;100.00;97650.53;5095152;28;19924;-83
2022/03/11 09:15:36;;;;;;;;;;;;;;;12.84;100.00;97649.03;5094579;28;19928;-83
2022/03/11 09:18:05;;;;;;;;;;;;;;;12.39;100.00;97649.91;5094690;28;19928;-83
2022/03/11 09:20:33;;;;;;;;;;;;;;;12.39;100.00;97638.69;5094777;28;19993;-83
2022/03/11 09:23:03;;;;;;;;;;;;;;;12.58;100.00;97634.63;5096005;28;19963;-82
2022/03/11 09:25:30;;;;;;;;;;;;;;;12.14;100.00;97633.44;5094606;28;19924;-82
2022/03/11 09:28:01;;;;;;;;;;;;;;;12.54;100.00;97619.97;5094724;28;19924;-83
2022/03/11 09:30:28;;;;;;;;;;;;;;;12.30;100.00;97607.91;5095976;28;20333;-82
2022/03/11 09:32:57;;;;;;;;;;;;;;;12.36;100.00;97616.44;5077476;28;20019;-82
2022/03/11 09:35:24;;;;;;;;;;;;;;;11.99;100.00;97615.72;5095723;28;19950;-83
2022/03/11 09:37:52;;;;;;;;;;;;;;;12.26;100.00;97601.69;5094421;28;19931;-81
2022/03/11 09:40:19;;;;;;;;;;;;;;;12.29;100.00;97600.75;5095212;28;19924;-80
2022/03/11 09:42:47;;;;;;;;;;;;;;;12.28;100.00;97599.19;5090237;28;19974;-81
2022/03/11 09:45:15;;;;;;;;;;;;;;;12.05;100.00;97596.28;5089083;28;20371;-83
2022/03/11 09:47:42;;;;;;;;;;;;;;;12.68;100.00;97584.91;5077707;28;19928;-82
2022/03/11 09:50:10;;;;;;;;;;;;;;;12.23;100.00;97591.44;5073691;28;19924;-82
2022/03/11 09:52:38;;;;;;;;;;;;;;;12.30;100.00;97582.69;5073715;28;19924;-85
2022/03/11 09:55:07;;;;;;;;;;;;;;;12.93;100.00;97569.72;5068548;28;19928;-84
2022/03/11 09:57:34;;;;;;;;;;;;;;;12.56;100.00;97600.69;5076738;28;19931;-84
2022/03/11 10:00:04;;;;;;;;;;;;;;;12.70;100.00;97597.22;5076896;28;20401;-86
2022/03/11 10:02:41;;;;;;;;;;;;;;;12.63;100.00;97577.16;5094947;28;20007;-85
2022/03/11 10:05:08;;;;;;;;;;;;;;;12.21;100.00;97565.13;5094083;28;19931;-85
2022/03/11 10:07:57;;;;;;;;;;;;;;;11.99;100.00;97570.94;5089342;28;19931;-85
2022/03/11 10:10:25;;;;;;;;;;;;;;;12.38;100.00;97553.13;5072915;28;19932;-85
2022/03/11 10:13:08;;;;;;;;;;;;;;;12.81;100.00;97557.47;5074536;28;19975;-85
2022/03/11 10:15:36;;;;;;;;;;;;;;;12.84;100.00;97558.53;5073111;28;20207;-84
2022/03/11 10:18:06;;;;;;;;;;;;;;;12.76;100.00;97544.09;5056226;28;19925;-84
2022/03/11 10:20:33;;;;;;;;;;;;;;;12.53;100.00;97542.00;5072865;28;19925;-84
2022/03/11 10:23:08;;;;;;;;;;;;;;;12.67;100.00;97539.31;5078760;28;19931;-84
2022/03/11 10:25:37;;;;;;;;;;;;;;;12.16;100.00;97558.13;5073315;28;19935;-84
2022/03/11 10:28:06;;;;;;;;;;;;;;;12.25;100.00;97543.34;5078535;28;19928;-84
2022/03/11 10:30:34;;;;;;;;;;;;;;;12.08;100.00;97540.13;5093114;28;19924;-83
2022/03/11 10:33:03;;;;;;;;;;;;;;;11.87;100.00;97538.31;5093190;28;19931;-84
2022/03/11 10:35:30;;;;;;;;;;;;;;;12.07;100.00;97563.75;5093949;28;19924;-85
2022/03/11 10:37:59;;;;;;;;;;;;;;;12.06;100.00;97551.00;5069523;28;19924;-84
2022/03/11 10:40:28;;;;;;;;;;;;;;;11.74;100.00;97553.72;5083160;28;19924;-83
2022/03/11 10:43:12;;;;;;;;;;;;;;;11.53;100.00;97558.16;5087268;28;19924;-83
2022/03/11 10:45:46;;;;;;;;;;;;;;;12.20;100.00;97543.97;5094420;28;19973;-84
2022/03/11 10:48:14;;;;;;;;;;;;;;;12.37;100.00;97556.41;5092869;28;20466;-85
2022/03/11 10:50:41;;;;;;;;;;;;;;;11.93;100.00;97544.84;5075902;28;19924;-85
2022/03/11 10:53:10;;;;;;;;;;;;;;;11.90;100.00;97551.38;5092906;28;20423;-84
2022/03/11 10:55:43;;;;;;;;;;;;;;;12.37;100.00;97567.59;5109441;28;19930;-85
2022/03/11 10:58:16;;;;;;;;;;;;;;;12.39;100.00;97531.47;5092343;28;19931;-84
2022/03/11 11:00:43;;;;;;;;;;;;;;;12.58;100.00;97521.75;5083597;28;19925;-85
2022/03/11 11:03:12;;;;;;;;;;;;;;;12.51;100.00;97522.88;5073329;28;19956;-85
2022/03/11 11:05:40;;;;;;;;;;;;;;;11.95;100.00;97522.72;5091507;28;20020;-85
2022/03/11 11:08:09;;;;;;;;;;;;;;;12.00;100.00;97505.31;5058027;28;20471;-85
2022/03/11 11:10:40;;;;;;;;;;;;;;;11.86;100.00;97538.78;5074869;28;20387;-85
2022/03/11 11:13:09;;;;;;;;;;;;;;;11.88;100.00;97511.88;5091290;28;20065;-85
2022/03/11 11:15:37;;;;;;;;;;;;;;;12.00;100.00;97527.69;5091600;28;19967;-85
2022/03/11 11:18:11;;;;;;;;;;;;;;;12.23;100.00;97506.66;5075810;28;19959;-84
2022/03/11 11:20:45;;;;;;;;;;;;;;;11.94;100.00;97507.19;5093626;28;19931;-85
2022/03/11 11:23:14;;;;;;;;;;;;;;;12.09;100.00;97485.69;5087988;28;19963;-85
2022/03/11 11:25:42;;;;;;;;;;;;;;;12.19;100.00;97492.03;5072980;28;19977;-85
2022/03/11 11:28:12;;;;;;;;;;;;;;;12.21;100.00;97498.72;5073764;28;19931;-85
2022/03/11 11:30:39;;;;;;;;;;;;;;;11.88;100.00;97503.47;5092000;28;19928;-85
2022/03/11 11:33:07;;;;;;;;;;;;;;;11.77;100.00;97491.97;5090685;28;19966;-85
2022/03/11 11:35:39;;;;;;;;;;;;;;;12.30;100.00;97495.88;5091228;28;19924;-85
2022/03/11 11:38:25;;;;;;;;;;;;;;;12.00;100.00;97496.13;5107911;28;19978;-85
2022/03/11 11:40:53;;;;;;;;;;;;;;;11.89;100.00;97488.22;5074584;28;20329;-85
2022/03/11 11:43:26;;;;;;;;;;;;;;;12.51;100.00;97483.66;5093432;28;19924;-85
2022/03/11 11:45:55;;;;;;;;;;;;;;;12.13;100.00;97480.69;5095076;28;19931;-85
2022/03/11 11:48:35;;;;;;;;;;;;;;;11.76;100.00;97473.66;5095129;28;19924;-85
2022/03/11 11:51:04;;;;;;;;;;;;;;;12.00;100.00;97479.34;5095077;28;19930;-85
2022/03/11 11:53:35;;;;;;;;;;;;;;;12.03;100.00;97470.78;5096151;28;20023;-85
2022/03/11 11:56:21;;;;;;;;;;;;;;;11.80;100.00;97465.84;5078059;28;19924;-85
2022/03/11 11:58:49;;;;;;;;;;;;;;;11.97;100.00;97471.88;5094570;28;19972;-85
2022/03/11 12:01:36;;;;;;;;;;;;;;;11.99;100.00;97472.19;5094943;28;19934;-85
2022/03/11 12:04:21;;;;;;;;;;;;;;;11.52;100.00;97481.13;5078741;28;19928;-82
2022/03/11 12:07:03;;;;;;;;;;;;;;;11.17;100.00;97471.47;5077151;28;19931;-85
2022/03/11 12:09:45;;;;;;;;;;;;;;;11.33;100.00;97471.16;5075333;28;19924;-86
2022/03/11 12:12:18;;;;;;;;;;;;;;;11.31;100.00;97478.47;5058298;28;19939;-79
2022/03/11 12:14:58;;;;;;;;;;;;;;;11.45;100.00;97453.44;5093611;28;19990;-83
2022/03/11 12:17:38;;;;;;;;;;;;;;;12.01;100.00;97448.06;5091936;28;20031;-85
2022/03/11 12:20:24;;;;;;;;;;;;;;;11.52;100.00;97436.38;5091742;28;19939;-88
2022/03/11 12:22:57;;;;;;;;;;;;;;;11.71;100.00;97443.50;5087446;28;19993;-89
2022/03/11 12:25:26;;;;;;;;;;;;;;;12.14;100.00;97425.47;5093645;28;19930;-84
2022/03/11 12:28:03;;;;;;;;;;;;;;;11.97;100.00;97432.69;5075843;28;20260;-85
2022/03/11 12:30:31;;;;;;;;;;;;;;;11.72;100.00;97414.25;5071075;28;20445;-85
2022/03/11 12:32:59;;;;;;;;;;;;;;;12.16;100.00;97409.75;5092906;28;19949;-83
2022/03/11 12:35:27;;;;;;;;;;;;;;;11.72;100.00;97416.31;5092136;28;19928;-83
2022/03/11 12:37:54;;;;;;;;;;;;;;;11.83;100.00;97394.97;5093353;28;19932;-85
2022/03/11 12:40:22;;;;;;;;;;;;;;;11.90;100.00;97403.03;5094153;28;19947;-87
2022/03/11 12:42:56;;;;;;;;;;;;;;;12.02;100.00;97402.06;5092125;28;19959;-83
2022/03/11 12:45:31;;;;;;;;;;;;;;;12.69;100.00;97384.75;5092054;28;19950;-82
2022/03/11 12:47:59;;;;;;;;;;;;;;;12.51;100.00;97387.66;5092051;28;20026;-84